Hume, California
Current Conditions -  °F | °C
As of 9:15 AM on Saturday 20 Dec 2014 (Local Time) from KVIS Reporting Station
Clear Clear  
Wind Chill: 11°   Ceiling: Unl
Heat Index: 11°   Visibility: 10mi
Dew Point:   Wind: 3mph
Humidity: 76%   Direction: 110°ESE
Pressure: 30.21"   Gusts: NA
Location:  36.78°N, 118.91°W
Report Text: KVIS 201715Z AUTO 11003KT 10SM CLR 11/07 A3021 RMK AO1
Loading
Personal Weather Stations






























Interactive Weather Map New forecast layout! Learn more

10-Day Weather Forecast

Advertisements
Track Severe Weather on mobile